Aeroporto :
LOGIN :

Iscrizione | Disclaimer

   EN    FR    IT 

 










Sommario :    VFR   VFR Marginale   IFR   IFR Intensivo   IFR Molto Intensivo
Visibilità : 
Base nubi : 
>= 8 km
>= 3000ft
5 / 8 km
1000 / 3000 ft
1500m / 5 km
500 / 1000 ft
800 / 1500m
200 / 500 ft
< 800m
< 200 ft
Simboli :   Temporali  Nebbia  Neve Forte  Precipitazioni Forti  Vento > 20 kt
SIGMETs :   Varie  Temporali  Ghiacco  Turbolenza  Onda orograficha  Ceneri Vulcaniche






- Altitudine del aeroporto : 479 ft
- Codice IATA : DOL


LFRG - Deauville

ULTIMO METAR :
  • 152030Z AUTO 17010KT CAVOK 07/04 Q1004 TEMPO 20015G25KT SHRA

METARs OBSOLETI :
  • 152000Z AUTO 18010KT CAVOK 07/04 Q1004 TEMPO 20015G25KT SHRA
  • 151930Z AUTO 18010KT CAVOK 07/04 Q1004 TEMPO 20015G25KT SHRA
  • 151900Z AUTO 19008KT 9999 SCT027 SCT040 BKN052 07/04 Q1004 TEMPO 20015G25KT SHRA
  • 151830Z AUTO 18010KT 9999 FEW029 BKN240 07/04 Q1004 TEMPO 20015G25KT SHRA
  • 151800Z AUTO 18009KT CAVOK 07/04 Q1004 TEMPO 20015G25KT SHRA

TAF TAF LFRG
Valido dal 15 a 15 ore il 16 a 00 ore UTC


151400Z 1515/1524 20010KT 9999 SCT030
PROB30
TEMPO 1515/1524 20015G25KT 5000 SHRA
ATIS : +33 2 31 65 65 36



MetMap, La meteo Aeronautica in un colpo d'occhio ! - Copyright ORBIFLY Dicembre 2007 - Disclaimer

ORBIFLY MET'MAP TEAM :

Programmazione e sviluppo : Alexandra Zaïnal
Concezione : Baudouin d'Aumeries
Aiuto per la programmazione : Marc-Olivier Méhu
Supporto tecnico e logistico : Manuel Goepfert
Aiuto per la traduzione : Arnaldo La Scala

Contatto : metmap@orbifly.com




FONTI E CREDITI :

   NOAA